Latest Weather Observations for Jabiru

IDD60801

Issued at 2:01 pm CST Thursday 19 January 2017 (issued every 30 minutes, with the page automatically refreshed every 10 minutes)

About weather observations | Map of weather stations | Latest weather observations for NT | Other Formats
Station Details ID: 014198 Name: JABIRU AIRPORT Lat: -12.66 Lon: 132.89 Height: 26.5 m
Data from the previous 72 hours. | See also: Recent months at Jabiru
Date/Time
CST
Temp
°C
App
Temp
°C
Dew
Point
°C
Rel
Hum
%
Delta-T
°C
Wind Press
QNH
hPa
Press
MSL
hPa
Rain since
9am
mm
Dir  Spd
km/h
Gust
km/h
Spd
kts
Gust
kts
19/02:00pm 32.5 35.6 22.9 57 6.6 WNW 11 19 6 10 1008.2 1007.9 0.0
19/01:30pm 31.8 36.5 23.9 63 5.5 N 6 7 3 4 1008.9 1008.6 0.0
19/01:00pm 31.4 35.1 23.2 61 5.7 NNW 9 13 5 7 1009.2 1008.9 0.0
19/12:30pm 31.6 34.9 23.2 61 5.8 WNW 11 15 6 8 1009.5 1009.3 0.0
19/12:00pm 30.7 34.3 23.1 64 5.2 WSW 9 15 5 8 1009.9 1009.7 0.0
19/11:30am 30.5 34.3 23.4 66 4.9 NW 9 15 5 8 1010.3 1010.1 0.0
19/11:00am 29.9 33.8 23.6 69 4.4 NW 9 15 5 8 1010.6 1010.4 0.0
19/10:30am 28.9 33.0 23.3 72 3.8 NW 7 9 4 5 1010.8 1010.6 0.0
19/10:00am 28.5 32.3 23.4 74 3.5 WNW 9 15 5 8 1011.2 1011.0 0.0
19/09:30am 28.4 32.4 23.8 76 3.2 WNW 9 15 5 8 1011.5 1011.3 0.0
19/09:00am 27.6 31.8 23.2 77 3.0 W 6 11 3 6 1011.8 1011.6 16.8
19/08:30am 26.9 32.1 23.6 82 2.3 NNE 2 6 1 3 1011.9 1011.7 16.8
19/08:00am 26.5 31.1 23.8 85 1.9 NNW 6 7 3 4 1011.7 1011.5 16.8
19/07:30am 25.1 29.4 23.7 92 1.0 NNW 7 7 4 4 1011.5 1011.3 16.8
19/07:00am 24.9 30.5 23.5 92 1.0 CALM 0 0 0 0 1011.0 1010.8 16.8
19/06:30am 24.7 30.0 23.7 94 0.7 NNE 2 7 1 4 1010.5 1010.3 16.8
19/06:00am 24.6 29.8 23.6 94 0.7 E 2 7 1 4 1010.0 1009.8 16.8
19/05:30am 24.6 30.1 23.4 93 0.8 CALM 0 0 0 0 1009.6 1009.4 16.8
19/05:00am 24.7 30.1 23.3 92 1.0 CALM 0 0 0 0 1009.3 1009.1 16.8
19/04:30am 24.7 30.3 23.5 93 0.8 CALM 0 0 0 0 1009.1 1008.8 16.8
19/04:00am 24.7 30.0 23.1 91 1.1 CALM 0 0 0 0 1009.2 1008.9 16.8
19/03:30am 24.8 30.2 23.2 91 1.1 CALM 0 0 0 0 1009.5 1009.3 16.8
19/03:00am 24.7 30.1 23.3 92 1.0 CALM 0 0 0 0 1009.6 1009.4 16.8
19/02:30am 24.8 30.2 23.2 91 1.1 CALM 0 0 0 0 1009.9 1009.7 16.8
19/02:00am 24.6 29.8 22.8 90 1.2 CALM 0 0 0 0 1010.2 1010.0 16.8
19/01:30am 24.9 28.7 22.8 88 1.4 WSW 7 9 4 5 1010.6 1010.4 16.8
19/01:00am 25.6 29.9 24.2 92 1.0 W 9 11 5 6 1011.1 1010.9 16.8
19/12:30am 25.9 30.5 24.7 93 0.8 WNW 9 11 5 6 1011.7 1011.5 16.8
19/12:00am 26.0 31.1 25.0 94 0.7 WNW 7 9 4 5 1011.9 1011.7 16.8
 
Date/Time
CST
Temp
°C
App
Temp
°C
Dew
Point
°C
Rel
Hum
%
Delta-T
°C
Wind Press
QNH
hPa
Press
MSL
hPa
Rain since
9am
mm
Dir  Spd
km/h
Gust
km/h
Spd
kts
Gust
kts
18/11:30pm 26.2 32.3 25.0 93 0.8 WNW 2 7 1 4 1012.2 1012.0 16.8
18/11:00pm 26.2 32.7 25.0 93 0.8 CALM 0 0 0 0 1012.4 1012.2 16.8
18/10:30pm 26.3 31.7 25.1 93 0.8 WNW 6 7 3 4 1012.6 1012.4 16.6
18/10:00pm 26.3 32.7 24.9 92 1.0 CALM 0 0 0 0 1012.0 1011.8 16.4
18/09:30pm 26.5 32.8 24.7 90 1.3 CALM 0 0 0 0 1011.5 1011.3 16.4
18/09:00pm 26.5 31.9 24.5 89 1.4 NNW 4 6 2 3 1011.2 1011.0 16.4
18/08:30pm 26.5 32.4 24.7 90 1.3 NNW 2 6 1 3 1010.9 1010.7 16.4
18/08:00pm 26.5 31.6 24.7 90 1.3 NNW 6 7 3 4 1010.5 1010.3 16.4
18/07:30pm 26.6 31.5 24.6 89 1.4 NNW 7 9 4 5 1010.0 1009.8 16.4
18/07:00pm 26.6 31.5 24.6 89 1.4 NNE 7 11 4 6 1009.7 1009.5 16.4
18/06:30pm 26.8 31.4 24.8 89 1.4 N 9 13 5 7 1009.7 1009.5 16.4
18/06:00pm 26.3 32.4 25.1 93 0.8 NNE 2 9 1 5 1009.7 1009.5 16.4
18/05:30pm 25.8 32.0 24.6 93 0.8 CALM 0 0 0 0 1009.5 1009.3 16.4
18/05:00pm 25.7 31.1 24.5 93 0.8 E 4 7 2 4 1009.2 1008.9 16.4
18/04:30pm 25.3 30.1 24.1 93 0.8 ESE 6 9 3 5 1009.0 1008.7 16.0
18/04:00pm 25.0 29.4 23.8 93 0.8 E 7 9 4 5 1008.8 1008.5 15.2
18/03:30pm 24.8 28.7 23.6 93 0.8 E 9 11 5 6 1009.4 1009.2 14.4
18/03:00pm 25.0 29.3 23.6 92 1.0 ENE 7 9 4 5 1009.2 1008.9 13.4
18/02:30pm 25.0 30.0 23.8 93 0.8 E 4 9 2 5 1009.6 1009.4 13.0
18/02:00pm 24.8 26.7 23.8 94 0.7 NNW 20 32 11 17 1010.2 1010.0 8.4
18/01:32pm 26.3 26.3 22.4 79 2.6 WNW 26 46 14 25 1009.4 1009.2 0.2
18/01:30pm 27.6 28.9 23.4 78 2.9 NW 22 46 12 25 1009.4 1009.2 0.0
18/01:00pm 33.0 36.5 22.1 52 7.4 WSW 7 11 4 6 1009.0 1008.7 0.0
18/12:30pm 32.9 36.9 22.7 55 7.0 S 6 9 3 5 1009.5 1009.3 0.0
18/12:00pm 32.6 37.4 24.1 61 5.9 S 6 9 3 5 1010.0 1009.8 0.0
18/11:30am 31.8 36.7 24.7 66 5.0 SSW 7 13 4 7 1010.5 1010.3 0.0
18/11:00am 30.4 35.4 24.8 72 3.9 S 7 13 4 7 1010.8 1010.6 0.0
18/10:30am 29.7 33.2 22.9 67 4.7 W 9 11 5 6 1011.3 1011.1 0.0
18/10:00am 28.6 33.4 24.2 77 3.1 NW 6 11 3 6 1011.4 1011.2 0.0
18/09:30am 28.3 31.3 23.4 75 3.4 NNW 13 24 7 13 1011.8 1011.6 0.0
18/09:00am 29.1 33.9 25.1 79 2.8 N 9 15 5 8 1011.8 1011.6 0.0
18/08:30am 28.1 32.0 24.3 80 2.6 N 11 15 6 8 1011.6 1011.4 0.0
18/08:00am 28.4 34.6 25.2 83 2.2 ENE 2 7 1 4 1011.4 1011.2 0.0
18/07:30am 27.8 34.6 25.6 88 1.6 CALM 0 0 0 0 1011.4 1011.2 0.0
18/07:00am 26.3 32.6 24.7 91 1.1 CALM 0 0 0 0 1010.8 1010.6 0.0
18/06:30am 26.1 32.1 24.3 90 1.2 CALM 0 0 0 0 1010.3 1010.1 0.0
18/06:00am 25.9 30.9 24.5 92 1.0 E 6 7 3 4 1009.7 1009.5 0.0
18/05:30am 26.0 31.3 24.4 91 1.1 E 4 6 2 3 1009.2 1008.9 0.0
18/05:00am 26.1 30.9 24.5 91 1.1 E 7 9 4 5 1009.1 1008.8 0.0
18/04:30am 26.1 30.9 24.5 91 1.1 E 7 7 4 4 1008.9 1008.6 0.0
18/04:00am 25.9 30.4 23.9 89 1.4 ENE 7 7 4 4 1008.7 1008.4 0.0
18/03:30am 26.2 30.8 24.2 89 1.4 E 7 9 4 5 1008.9 1008.6 0.0
18/03:00am 26.2 32.2 24.2 89 1.4 CALM 0 0 0 0 1008.8 1008.5 0.0
18/02:30am 26.6 32.6 24.3 87 1.6 CALM 0 0 0 0 1008.8 1008.5 0.0
18/02:00am 26.7 32.5 24.0 85 1.9 CALM 0 0 0 0 1009.1 1008.8 0.0
18/01:30am 26.8 32.7 24.1 85 1.9 CALM 0 0 0 0 1009.3 1009.1 0.0
18/01:00am 27.1 33.1 24.2 84 2.0 CALM 0 0 0 0 1009.4 1009.2 0.0
18/12:30am 27.0 32.9 24.1 84 2.0 CALM 0 0 0 0 1009.7 1009.5 0.0
18/12:00am 27.1 31.9 24.2 84 2.0 NE 6 7 3 4 1010.0 1009.8 0.0
 
Date/Time
CST
Temp
°C
App
Temp
°C
Dew
Point
°C
Rel
Hum
%
Delta-T
°C
Wind Press
QNH
hPa
Press
MSL
hPa
Rain since
9am
mm
Dir  Spd
km/h
Gust
km/h
Spd
kts
Gust
kts
17/11:30pm 27.2 31.9 23.9 82 2.3 N 6 7 3 4 1010.2 1010.0 0.0
17/11:00pm 27.6 33.3 23.8 80 2.6 CALM 0 0 0 0 1010.6 1010.4 0.0
17/10:30pm 27.6 32.7 24.0 81 2.5 N 4 7 2 4 1010.6 1010.4 0.0
17/10:00pm 27.8 32.4 23.8 79 2.8 NNW 6 7 3 4 1010.4 1010.2 0.0
17/09:30pm 27.9 32.4 23.7 78 2.9 NNW 6 9 3 5 1010.1 1009.9 0.0
17/09:00pm 28.0 32.5 23.6 77 3.0 N 6 7 3 4 1009.8 1009.6 0.0
17/08:30pm 28.3 32.5 23.4 75 3.4 NNE 7 9 4 5 1009.6 1009.4 0.0
17/08:00pm 29.1 32.7 23.1 70 4.1 NNW 9 11 5 6 1009.5 1009.3 0.0
17/07:30pm 29.7 32.6 22.4 65 5.0 NNW 11 15 6 8 1008.9 1008.6 0.0
17/07:00pm 30.3 32.2 20.5 55 6.5 NNW 11 15 6 8 1008.1 1007.8 0.0
17/06:30pm 31.4 31.3 18.7 46 8.3 NNW 17 22 9 12 1007.7 1007.5 0.0
17/06:00pm 32.1 32.5 19.0 45 8.6 NNW 15 20 8 11 1007.5 1007.3 0.0
17/05:30pm 32.2 32.6 19.1 45 8.6 NNW 15 20 8 11 1006.8 1006.6 0.0
17/05:00pm 32.8 33.8 20.3 47 8.3 N 15 22 8 12 1006.4 1006.2 0.0
17/04:30pm 32.9 33.8 20.8 49 8.1 N 17 24 9 13 1006.5 1006.3 0.0
17/04:00pm 31.6 33.9 22.0 56 6.5 NNW 13 17 7 9 1006.5 1006.3 0.0
17/03:30pm 30.8 31.9 21.9 59 6.0 NNW 19 33 10 18 1006.9 1006.7 0.0
17/03:00pm 29.4 28.7 20.3 58 6.0 NNW 24 41 13 22 1007.1 1006.9 0.0
17/02:30pm 32.5 34.9 22.3 55 7.0 NW 13 17 7 9 1007.2 1007.0 0.0
17/02:00pm 32.8 36.1 22.6 55 7.0 NNW 9 17 5 9 1007.5 1007.3 0.0
17/01:30pm 32.2 35.2 23.4 59 6.1 NNW 13 20 7 11 1007.9 1007.7 0.0
17/01:00pm 31.5 34.8 23.9 64 5.3 NW 13 19 7 10 1008.4 1008.1 0.0
17/12:30pm 31.8 35.9 23.9 63 5.5 NW 9 15 5 8 1008.5 1008.2 0.0
17/12:00pm 31.7 35.3 23.0 60 6.0 WNW 9 15 5 8 1008.8 1008.5 0.0
17/11:30am 31.5 34.9 23.3 61 5.7 WNW 11 19 6 10 1009.2 1008.9 0.0
17/11:00am 30.7 34.5 23.4 65 5.0 N 9 15 5 8 1009.5 1009.3 0.0
17/10:30am 29.8 33.3 23.5 69 4.3 NNW 11 17 6 9 1009.7 1009.5 0.0
17/10:00am 29.1 33.7 23.8 73 3.7 NNE 6 11 3 6 1010.2 1010.0 0.0
17/09:30am 27.7 32.2 23.7 79 2.8 E 6 9 3 5 1010.3 1010.1 0.0
17/09:00am 26.8 31.3 23.9 84 2.0 E 7 11 4 6 1010.4 1010.2 21.8
17/08:30am 26.0 31.1 24.0 89 1.4 SE 4 6 2 3 1010.4 1010.2 21.8
17/08:00am 25.3 31.1 23.9 92 1.0 CALM 0 9 0 5 1010.2 1010.0 21.8
17/07:30am 24.5 30.2 23.8 96 0.5 CALM 0 0 0 0 1009.7 1009.5 21.8
17/07:00am 24.1 29.7 23.6 97 0.3 CALM 0 0 0 0 1009.3 1009.1 21.8
17/06:30am 23.8 29.1 23.1 96 0.5 CALM 0 0 0 0 1008.5 1008.2 21.8
17/06:00am 23.8 29.1 23.1 96 0.5 CALM 0 0 0 0 1007.8 1007.6 21.6
17/05:30am 23.7 29.0 23.0 96 0.5 CALM 0 0 0 0 1007.4 1007.2 21.6
17/05:00am 23.9 29.4 23.4 97 0.3 CALM 0 0 0 0 1007.4 1007.2 21.6
17/04:30am 23.9 29.3 23.2 96 0.5 CALM 0 0 0 0 1007.0 1006.8 21.6
17/04:00am 23.9 29.3 23.2 96 0.5 CALM 0 0 0 0 1007.1 1006.9 21.6
17/03:30am 23.9 28.9 23.2 96 0.5 NNE 2 7 1 4 1007.1 1006.9 21.6
17/03:00am 23.9 29.3 23.2 96 0.5 CALM 0 0 0 0 1007.3 1007.1 21.6
17/02:30am 23.8 29.1 23.0 95 0.5 CALM 0 0 0 0 1007.6 1007.4 21.6
17/02:00am 23.8 29.1 23.0 95 0.5 CALM 0 0 0 0 1007.6 1007.4 21.6
17/01:30am 23.7 27.8 22.9 95 0.5 NE 6 7 3 4 1007.7 1007.5 21.6
17/01:00am 23.8 29.0 22.8 94 0.7 CALM 0 0 0 0 1007.9 1007.7 21.6
17/12:30am 23.9 29.1 22.9 94 0.7 CALM 0 0 0 0 1008.2 1007.9 21.6
17/12:00am 23.8 28.7 23.0 95 0.5 WNW 2 6 1 3 1008.6 1008.3 21.6
 
Date/Time
CST
Temp
°C
App
Temp
°C
Dew
Point
°C
Rel
Hum
%
Delta-T
°C
Wind Press
QNH
hPa
Press
MSL
hPa
Rain since
9am
mm
Dir  Spd
km/h
Gust
km/h
Spd
kts
Gust
kts
16/11:30pm 23.7 27.8 22.9 95 0.5 W 6 7 3 4 1008.9 1008.6 21.6
16/11:00pm 23.8 27.4 23.1 96 0.5 SW 9 13 5 7 1008.7 1008.4 21.6
16/10:30pm 23.7 27.3 23.0 96 0.5 SW 9 11 5 6 1008.4 1008.1 21.6
16/10:00pm 24.1 29.5 23.2 95 0.6 CALM 0 0 0 0 1007.8 1007.6 21.6
16/09:30pm 23.6 28.7 22.6 94 0.7 CALM 0 6 0 3 1007.3 1007.1 21.6
16/09:00pm 23.7 27.8 22.9 95 0.5 NE 6 7 3 4 1007.0 1006.8 21.6
16/08:30pm 23.5 27.3 22.7 95 0.5 E 7 9 4 5 1007.1 1006.9 21.6
16/08:00pm 23.6 27.4 22.8 95 0.5 ENE 7 9 4 5 1007.6 1007.4 21.6
16/07:30pm 23.7 27.1 22.7 94 0.7 NE 9 9 5 5 1008.2 1007.9 21.0
16/07:00pm 23.5 26.9 22.7 95 0.5 NE 9 13 5 7 1008.7 1008.4 20.4
16/06:30pm 23.5 25.9 22.3 93 0.8 SW 13 20 7 11 1009.0 1008.7 13.0
16/06:00pm 23.0 25.8 21.6 92 0.9 S 9 11 5 6 1007.7 1007.5 8.8
16/05:30pm 23.1 25.1 21.5 91 1.1 SW 13 20 7 11 1007.8 1007.6 8.2
16/05:01pm 25.8 25.9 21.2 76 3.0 WSW 22 50 12 27 1007.7 1007.5 0.0
16/05:00pm 26.1 26.2 21.1 74 3.3 WSW 22 50 12 27 1007.7 1007.5 0.0
16/04:59pm 26.5 26.8 20.8 71 3.8 W 20 50 11 27 1007.6 1007.4 0.0
16/04:30pm 31.0 34.4 23.4 64 5.3 NW 11 17 6 9 1005.8 1005.6 0.0
16/04:00pm 30.7 34.4 23.9 67 4.7 NNW 11 17 6 9 1005.6 1005.4 0.0
16/03:30pm 30.4 33.6 23.1 65 5.0 NW 11 17 6 9 1005.5 1005.3 0.0
16/03:00pm 30.4 33.5 23.6 67 4.7 NNW 13 17 7 9 1005.6 1005.4 0.0
16/02:30pm 30.2 32.3 22.4 63 5.3 NW 15 20 8 11 1005.9 1005.7 0.0

Other Formats:

Comma delimited format used in spreadsheet applications
http://www.bom.gov.au/fwo/IDD60801/IDD60801.94137.axf

JavaScript Object Notation format (JSON) in row-major order
http://www.bom.gov.au/fwo/IDD60801/IDD60801.94137.json